sensor_id;sensor_type;location;lat;lon;timestamp;P1;durP1;ratioP1;P2;durP2;ratioP2
30681;SDS011;17439;48.092;11.842;2022-11-20T00:01:27;1.75;;;0.93;;
30681;SDS011;17439;48.092;11.842;2022-11-20T00:06:23;1.92;;;1.23;;
30681;SDS011;17439;48.092;11.842;2022-11-20T00:08:50;3.50;;;1.33;;
30681;SDS011;17439;48.092;11.842;2022-11-20T00:11:18;3.70;;;1.10;;
30681;SDS011;17439;48.092;11.842;2022-11-20T00:13:48;2.50;;;1.10;;
30681;SDS011;17439;48.092;11.842;2022-11-20T00:16:17;2.92;;;1.23;;
30681;SDS011;17439;48.092;11.842;2022-11-20T00:18:46;3.22;;;1.50;;
30681;SDS011;17439;48.092;11.842;2022-11-20T00:21:18;1.75;;;1.42;;
30681;SDS011;17439;48.092;11.842;2022-11-20T00:23:48;2.33;;;1.33;;
30681;SDS011;17439;48.092;11.842;2022-11-20T00:26:17;4.10;;;2.08;;
30681;SDS011;17439;48.092;11.842;2022-11-20T00:28:49;3.33;;;1.52;;
30681;SDS011;17439;48.092;11.842;2022-11-20T00:31:17;2.03;;;1.02;;
30681;SDS011;17439;48.092;11.842;2022-11-20T00:33:45;3.05;;;1.10;;
30681;SDS011;17439;48.092;11.842;2022-11-20T00:36:16;1.67;;;1.10;;
30681;SDS011;17439;48.092;11.842;2022-11-20T00:38:45;4.13;;;1.83;;
30681;SDS011;17439;48.092;11.842;2022-11-20T00:41:13;1.55;;;0.98;;
30681;SDS011;17439;48.092;11.842;2022-11-20T00:43:41;1.38;;;0.98;;
30681;SDS011;17439;48.092;11.842;2022-11-20T00:46:10;4.13;;;1.67;;
30681;SDS011;17439;48.092;11.842;2022-11-20T00:48:40;2.00;;;1.00;;
30681;SDS011;17439;48.092;11.842;2022-11-20T00:51:08;1.52;;;1.05;;
30681;SDS011;17439;48.092;11.842;2022-11-20T00:53:35;2.20;;;1.13;;
30681;SDS011;17439;48.092;11.842;2022-11-20T00:56:03;1.45;;;0.90;;
30681;SDS011;17439;48.092;11.842;2022-11-20T00:58:35;0.85;;;0.70;;
30681;SDS011;17439;48.092;11.842;2022-11-20T01:01:08;3.05;;;1.50;;
30681;SDS011;17439;48.092;11.842;2022-11-20T01:03:41;2.13;;;1.15;;
30681;SDS011;17439;48.092;11.842;2022-11-20T01:06:16;2.33;;;1.20;;
30681;SDS011;17439;48.092;11.842;2022-11-20T01:08:45;2.05;;;1.10;;
30681;SDS011;17439;48.092;11.842;2022-11-20T01:11:20;1.52;;;0.98;;
30681;SDS011;17439;48.092;11.842;2022-11-20T01:13:50;3.13;;;0.90;;
30681;SDS011;17439;48.092;11.842;2022-11-20T01:18:50;2.28;;;1.15;;
30681;SDS011;17439;48.092;11.842;2022-11-20T01:21:20;2.08;;;1.10;;
30681;SDS011;17439;48.092;11.842;2022-11-20T01:23:49;1.65;;;1.00;;
30681;SDS011;17439;48.092;11.842;2022-11-20T01:26:19;7.10;;;1.50;;
30681;SDS011;17439;48.092;11.842;2022-11-20T01:28:47;1.13;;;0.90;;
30681;SDS011;17439;48.092;11.842;2022-11-20T01:31:16;1.88;;;1.13;;
30681;SDS011;17439;48.092;11.842;2022-11-20T01:33:46;2.67;;;1.48;;
30681;SDS011;17439;48.092;11.842;2022-11-20T01:36:15;1.23;;;0.93;;
30681;SDS011;17439;48.092;11.842;2022-11-20T01:41:11;1.33;;;0.90;;
30681;SDS011;17439;48.092;11.842;2022-11-20T01:43:39;2.47;;;1.23;;
30681;SDS011;17439;48.092;11.842;2022-11-20T01:46:16;2.50;;;1.02;;
30681;SDS011;17439;48.092;11.842;2022-11-20T01:48:53;4.38;;;1.45;;
30681;SDS011;17439;48.092;11.842;2022-11-20T01:51:29;3.10;;;1.45;;
30681;SDS011;17439;48.092;11.842;2022-11-20T01:54:12;4.13;;;1.33;;
30681;SDS011;17439;48.092;11.842;2022-11-20T01:56:44;1.23;;;0.98;;
30681;SDS011;17439;48.092;11.842;2022-11-20T01:59:13;2.97;;;1.13;;
30681;SDS011;17439;48.092;11.842;2022-11-20T02:01:45;2.03;;;1.27;;
30681;SDS011;17439;48.092;11.842;2022-11-20T02:04:12;3.75;;;1.55;;
30681;SDS011;17439;48.092;11.842;2022-11-20T02:06:50;4.55;;;1.60;;
30681;SDS011;17439;48.092;11.842;2022-11-20T02:09:24;1.88;;;1.33;;
30681;SDS011;17439;48.092;11.842;2022-11-20T02:11:52;2.63;;;1.37;;
30681;SDS011;17439;48.092;11.842;2022-11-20T02:14:20;3.50;;;1.73;;
30681;SDS011;17439;48.092;11.842;2022-11-20T02:16:49;2.15;;;1.40;;
30681;SDS011;17439;48.092;11.842;2022-11-20T02:22:08;3.33;;;2.53;;
30681;SDS011;17439;48.092;11.842;2022-11-20T02:24:41;3.70;;;1.58;;
30681;SDS011;17439;48.092;11.842;2022-11-20T02:27:11;2.33;;;1.83;;
30681;SDS011;17439;48.092;11.842;2022-11-20T02:29:42;6.15;;;1.45;;
30681;SDS011;17439;48.092;11.842;2022-11-20T02:32:24;2.35;;;1.40;;
30681;SDS011;17439;48.092;11.842;2022-11-20T02:34:57;4.78;;;2.45;;
30681;SDS011;17439;48.092;11.842;2022-11-20T02:37:30;4.30;;;1.60;;
30681;SDS011;17439;48.092;11.842;2022-11-20T02:40:01;5.00;;;1.92;;
30681;SDS011;17439;48.092;11.842;2022-11-20T02:42:28;3.37;;;1.63;;
30681;SDS011;17439;48.092;11.842;2022-11-20T02:44:55;4.35;;;1.90;;
30681;SDS011;17439;48.092;11.842;2022-11-20T02:47:22;6.38;;;2.45;;
30681;SDS011;17439;48.092;11.842;2022-11-20T02:49:50;3.67;;;2.57;;
30681;SDS011;17439;48.092;11.842;2022-11-20T02:52:17;4.15;;;1.80;;
30681;SDS011;17439;48.092;11.842;2022-11-20T02:54:44;4.30;;;1.42;;
30681;SDS011;17439;48.092;11.842;2022-11-20T02:57:11;3.17;;;1.40;;
30681;SDS011;17439;48.092;11.842;2022-11-20T02:59:38;2.63;;;1.98;;
30681;SDS011;17439;48.092;11.842;2022-11-20T03:02:05;6.10;;;2.67;;
30681;SDS011;17439;48.092;11.842;2022-11-20T03:04:32;2.72;;;1.60;;
30681;SDS011;17439;48.092;11.842;2022-11-20T03:07:00;2.97;;;1.83;;
30681;SDS011;17439;48.092;11.842;2022-11-20T03:09:27;3.47;;;1.20;;
30681;SDS011;17439;48.092;11.842;2022-11-20T03:11:54;3.05;;;1.50;;
30681;SDS011;17439;48.092;11.842;2022-11-20T03:14:21;2.20;;;1.20;;
30681;SDS011;17439;48.092;11.842;2022-11-20T03:16:48;2.67;;;1.30;;
30681;SDS011;17439;48.092;11.842;2022-11-20T03:19:16;2.00;;;1.30;;
30681;SDS011;17439;48.092;11.842;2022-11-20T03:21:43;1.57;;;1.23;;
30681;SDS011;17439;48.092;11.842;2022-11-20T03:24:10;2.55;;;1.27;;
30681;SDS011;17439;48.092;11.842;2022-11-20T03:26:38;3.25;;;1.52;;
30681;SDS011;17439;48.092;11.842;2022-11-20T03:29:06;2.78;;;1.10;;
30681;SDS011;17439;48.092;11.842;2022-11-20T03:31:34;2.47;;;1.63;;
30681;SDS011;17439;48.092;11.842;2022-11-20T03:34:03;1.73;;;1.15;;
30681;SDS011;17439;48.092;11.842;2022-11-20T03:36:30;2.80;;;1.45;;
30681;SDS011;17439;48.092;11.842;2022-11-20T03:38:58;3.85;;;1.58;;
30681;SDS011;17439;48.092;11.842;2022-11-20T03:41:26;2.00;;;1.20;;
30681;SDS011;17439;48.092;11.842;2022-11-20T03:43:59;2.13;;;1.35;;
30681;SDS011;17439;48.092;11.842;2022-11-20T03:46:28;2.45;;;1.55;;
30681;SDS011;17439;48.092;11.842;2022-11-20T03:48:56;2.13;;;1.42;;
30681;SDS011;17439;48.092;11.842;2022-11-20T03:51:24;4.05;;;1.80;;
30681;SDS011;17439;48.092;11.842;2022-11-20T03:53:54;2.28;;;1.40;;
30681;SDS011;17439;48.092;11.842;2022-11-20T03:56:28;2.67;;;1.55;;
30681;SDS011;17439;48.092;11.842;2022-11-20T03:58:57;4.70;;;1.50;;
30681;SDS011;17439;48.092;11.842;2022-11-20T04:01:26;3.37;;;1.67;;
30681;SDS011;17439;48.092;11.842;2022-11-20T04:04:01;2.35;;;1.42;;
30681;SDS011;17439;48.092;11.842;2022-11-20T04:06:35;2.78;;;1.33;;
30681;SDS011;17439;48.092;11.842;2022-11-20T04:09:04;1.52;;;1.40;;
30681;SDS011;17439;48.092;11.842;2022-11-20T04:11:32;2.65;;;1.60;;
30681;SDS011;17439;48.092;11.842;2022-11-20T04:14:03;2.30;;;1.75;;
30681;SDS011;17439;48.092;11.842;2022-11-20T04:16:32;2.83;;;1.48;;
30681;SDS011;17439;48.092;11.842;2022-11-20T04:19:03;4.82;;;1.30;;
30681;SDS011;17439;48.092;11.842;2022-11-20T04:21:32;2.72;;;1.15;;
30681;SDS011;17439;48.092;11.842;2022-11-20T04:23:59;1.67;;;1.48;;
30681;SDS011;17439;48.092;11.842;2022-11-20T04:26:27;2.20;;;1.53;;
30681;SDS011;17439;48.092;11.842;2022-11-20T04:28:55;1.98;;;1.58;;
30681;SDS011;17439;48.092;11.842;2022-11-20T04:31:24;3.08;;;1.50;;
30681;SDS011;17439;48.092;11.842;2022-11-20T04:33:55;1.75;;;1.30;;
30681;SDS011;17439;48.092;11.842;2022-11-20T04:36:26;2.03;;;1.35;;
30681;SDS011;17439;48.092;11.842;2022-11-20T04:38:55;4.10;;;1.70;;
30681;SDS011;17439;48.092;11.842;2022-11-20T04:41:24;3.72;;;1.77;;
30681;SDS011;17439;48.092;11.842;2022-11-20T04:43:54;2.45;;;1.65;;
30681;SDS011;17439;48.092;11.842;2022-11-20T04:46:22;2.42;;;1.80;;
30681;SDS011;17439;48.092;11.842;2022-11-20T04:48:49;2.30;;;1.45;;
30681;SDS011;17439;48.092;11.842;2022-11-20T04:51:17;3.13;;;1.55;;
30681;SDS011;17439;48.092;11.842;2022-11-20T04:53:44;4.18;;;1.40;;
30681;SDS011;17439;48.092;11.842;2022-11-20T04:56:11;2.80;;;1.47;;
30681;SDS011;17439;48.092;11.842;2022-11-20T04:58:39;2.55;;;1.50;;
30681;SDS011;17439;48.092;11.842;2022-11-20T05:01:24;2.37;;;1.33;;
30681;SDS011;17439;48.092;11.842;2022-11-20T05:03:51;1.10;;;1.00;;
30681;SDS011;17439;48.092;11.842;2022-11-20T05:06:19;2.85;;;1.48;;
30681;SDS011;17439;48.092;11.842;2022-11-20T05:08:48;2.80;;;1.10;;
30681;SDS011;17439;48.092;11.842;2022-11-20T05:11:16;2.53;;;1.50;;
30681;SDS011;17439;48.092;11.842;2022-11-20T05:13:46;2.25;;;1.52;;
30681;SDS011;17439;48.092;11.842;2022-11-20T05:16:14;1.50;;;1.00;;
30681;SDS011;17439;48.092;11.842;2022-11-20T05:18:43;1.25;;;1.15;;
30681;SDS011;17439;48.092;11.842;2022-11-20T05:21:10;2.58;;;1.10;;
30681;SDS011;17439;48.092;11.842;2022-11-20T05:23:39;1.50;;;1.20;;
30681;SDS011;17439;48.092;11.842;2022-11-20T05:26:07;2.35;;;1.42;;
30681;SDS011;17439;48.092;11.842;2022-11-20T05:28:39;2.53;;;1.55;;
30681;SDS011;17439;48.092;11.842;2022-11-20T05:31:11;2.55;;;1.73;;
30681;SDS011;17439;48.092;11.842;2022-11-20T05:33:40;2.13;;;1.20;;
30681;SDS011;17439;48.092;11.842;2022-11-20T05:38:35;2.20;;;1.33;;
30681;SDS011;17439;48.092;11.842;2022-11-20T05:41:06;3.23;;;1.37;;
30681;SDS011;17439;48.092;11.842;2022-11-20T05:43:44;2.63;;;1.60;;
30681;SDS011;17439;48.092;11.842;2022-11-20T05:46:13;1.60;;;1.30;;
30681;SDS011;17439;48.092;11.842;2022-11-20T05:48:42;2.83;;;1.38;;
30681;SDS011;17439;48.092;11.842;2022-11-20T05:51:11;3.22;;;1.77;;
30681;SDS011;17439;48.092;11.842;2022-11-20T05:53:40;2.30;;;1.20;;
30681;SDS011;17439;48.092;11.842;2022-11-20T05:56:18;2.85;;;1.50;;
30681;SDS011;17439;48.092;11.842;2022-11-20T05:58:46;2.03;;;1.13;;
30681;SDS011;17439;48.092;11.842;2022-11-20T06:01:19;4.13;;;1.42;;
30681;SDS011;17439;48.092;11.842;2022-11-20T06:03:48;2.90;;;1.40;;
30681;SDS011;17439;48.092;11.842;2022-11-20T06:06:17;2.90;;;1.60;;
30681;SDS011;17439;48.092;11.842;2022-11-20T06:08:45;2.00;;;1.38;;
30681;SDS011;17439;48.092;11.842;2022-11-20T06:11:12;2.30;;;1.33;;
30681;SDS011;17439;48.092;11.842;2022-11-20T06:13:40;1.85;;;1.50;;
30681;SDS011;17439;48.092;11.842;2022-11-20T06:18:37;3.55;;;1.60;;
30681;SDS011;17439;48.092;11.842;2022-11-20T06:21:09;2.53;;;1.80;;
30681;SDS011;17439;48.092;11.842;2022-11-20T06:23:41;2.92;;;1.83;;
30681;SDS011;17439;48.092;11.842;2022-11-20T06:26:12;2.47;;;1.75;;
30681;SDS011;17439;48.092;11.842;2022-11-20T06:28:41;2.95;;;1.95;;
30681;SDS011;17439;48.092;11.842;2022-11-20T06:31:10;2.80;;;1.80;;
30681;SDS011;17439;48.092;11.842;2022-11-20T06:33:39;3.67;;;2.60;;
30681;SDS011;17439;48.092;11.842;2022-11-20T06:36:06;3.22;;;2.13;;
30681;SDS011;17439;48.092;11.842;2022-11-20T06:38:37;3.60;;;1.50;;
30681;SDS011;17439;48.092;11.842;2022-11-20T06:41:05;3.25;;;1.98;;
30681;SDS011;17439;48.092;11.842;2022-11-20T06:43:34;3.00;;;1.90;;
30681;SDS011;17439;48.092;11.842;2022-11-20T06:46:01;3.42;;;2.35;;
30681;SDS011;17439;48.092;11.842;2022-11-20T06:48:28;3.85;;;2.00;;
30681;SDS011;17439;48.092;11.842;2022-11-20T06:50:56;6.70;;;2.40;;
30681;SDS011;17439;48.092;11.842;2022-11-20T06:53:24;2.20;;;1.90;;
30681;SDS011;17439;48.092;11.842;2022-11-20T06:55:52;4.45;;;2.40;;
30681;SDS011;17439;48.092;11.842;2022-11-20T06:58:22;5.15;;;2.00;;
30681;SDS011;17439;48.092;11.842;2022-11-20T07:00:49;4.32;;;2.60;;
30681;SDS011;17439;48.092;11.842;2022-11-20T07:03:16;4.68;;;2.05;;
30681;SDS011;17439;48.092;11.842;2022-11-20T07:05:43;3.03;;;2.10;;
30681;SDS011;17439;48.092;11.842;2022-11-20T07:08:11;3.10;;;2.10;;
30681;SDS011;17439;48.092;11.842;2022-11-20T07:10:38;3.00;;;1.98;;
30681;SDS011;17439;48.092;11.842;2022-11-20T07:13:06;4.03;;;2.63;;
30681;SDS011;17439;48.092;11.842;2022-11-20T07:15:33;4.18;;;2.35;;
30681;SDS011;17439;48.092;11.842;2022-11-20T07:18:00;3.20;;;1.83;;
30681;SDS011;17439;48.092;11.842;2022-11-20T07:20:28;1.98;;;1.67;;
30681;SDS011;17439;48.092;11.842;2022-11-20T07:22:55;4.88;;;2.10;;
30681;SDS011;17439;48.092;11.842;2022-11-20T07:25:24;3.95;;;2.10;;
30681;SDS011;17439;48.092;11.842;2022-11-20T07:27:53;3.65;;;2.22;;
30681;SDS011;17439;48.092;11.842;2022-11-20T07:30:23;3.78;;;1.80;;
30681;SDS011;17439;48.092;11.842;2022-11-20T07:32:51;2.58;;;1.65;;
30681;SDS011;17439;48.092;11.842;2022-11-20T07:35:19;4.05;;;1.42;;
30681;SDS011;17439;48.092;11.842;2022-11-20T07:37:47;3.53;;;1.80;;
30681;SDS011;17439;48.092;11.842;2022-11-20T07:40:14;2.83;;;2.00;;
30681;SDS011;17439;48.092;11.842;2022-11-20T07:42:52;2.80;;;1.67;;
30681;SDS011;17439;48.092;11.842;2022-11-20T07:45:22;3.95;;;1.50;;
30681;SDS011;17439;48.092;11.842;2022-11-20T07:47:50;1.80;;;1.38;;
30681;SDS011;17439;48.092;11.842;2022-11-20T07:50:18;2.40;;;1.73;;
30681;SDS011;17439;48.092;11.842;2022-11-20T07:52:46;3.05;;;2.00;;
30681;SDS011;17439;48.092;11.842;2022-11-20T07:55:13;4.03;;;1.93;;
30681;SDS011;17439;48.092;11.842;2022-11-20T07:57:41;5.00;;;2.15;;
30681;SDS011;17439;48.092;11.842;2022-11-20T08:00:08;2.65;;;1.92;;
30681;SDS011;17439;48.092;11.842;2022-11-20T08:02:40;4.43;;;1.90;;
30681;SDS011;17439;48.092;11.842;2022-11-20T08:05:08;2.40;;;1.60;;
30681;SDS011;17439;48.092;11.842;2022-11-20T08:07:37;2.38;;;1.65;;
30681;SDS011;17439;48.092;11.842;2022-11-20T08:10:05;5.05;;;1.83;;
30681;SDS011;17439;48.092;11.842;2022-11-20T08:14:59;3.42;;;1.83;;
30681;SDS011;17439;48.092;11.842;2022-11-20T08:17:26;2.75;;;1.98;;
30681;SDS011;17439;48.092;11.842;2022-11-20T08:19:53;2.00;;;1.38;;
30681;SDS011;17439;48.092;11.842;2022-11-20T08:22:21;2.80;;;1.63;;
30681;SDS011;17439;48.092;11.842;2022-11-20T08:24:48;2.53;;;1.60;;
30681;SDS011;17439;48.092;11.842;2022-11-20T08:27:15;2.45;;;1.48;;
30681;SDS011;17439;48.092;11.842;2022-11-20T08:29:42;3.33;;;2.05;;
30681;SDS011;17439;48.092;11.842;2022-11-20T08:32:09;1.63;;;1.25;;
30681;SDS011;17439;48.092;11.842;2022-11-20T08:34:37;1.88;;;1.33;;
30681;SDS011;17439;48.092;11.842;2022-11-20T08:37:04;3.65;;;1.80;;
30681;SDS011;17439;48.092;11.842;2022-11-20T08:39:31;4.40;;;1.52;;
30681;SDS011;17439;48.092;11.842;2022-11-20T08:41:58;2.10;;;0.93;;
30681;SDS011;17439;48.092;11.842;2022-11-20T08:44:25;1.58;;;1.00;;
30681;SDS011;17439;48.092;11.842;2022-11-20T08:46:52;2.67;;;1.07;;
30681;SDS011;17439;48.092;11.842;2022-11-20T08:49:19;2.35;;;1.17;;
30681;SDS011;17439;48.092;11.842;2022-11-20T08:51:47;3.35;;;1.55;;
30681;SDS011;17439;48.092;11.842;2022-11-20T08:54:14;2.10;;;1.13;;
30681;SDS011;17439;48.092;11.842;2022-11-20T08:56:41;3.60;;;1.52;;
30681;SDS011;17439;48.092;11.842;2022-11-20T08:59:08;1.73;;;1.20;;
30681;SDS011;17439;48.092;11.842;2022-11-20T09:01:56;4.18;;;1.35;;
30681;SDS011;17439;48.092;11.842;2022-11-20T09:04:23;1.83;;;1.15;;
30681;SDS011;17439;48.092;11.842;2022-11-20T09:06:50;3.13;;;1.30;;
30681;SDS011;17439;48.092;11.842;2022-11-20T09:09:17;2.10;;;1.30;;
30681;SDS011;17439;48.092;11.842;2022-11-20T09:11:45;1.88;;;1.13;;
30681;SDS011;17439;48.092;11.842;2022-11-20T09:14:12;3.47;;;1.25;;
30681;SDS011;17439;48.092;11.842;2022-11-20T09:16:39;2.83;;;1.17;;
30681;SDS011;17439;48.092;11.842;2022-11-20T09:19:06;2.30;;;1.10;;
30681;SDS011;17439;48.092;11.842;2022-11-20T09:21:53;1.98;;;1.45;;
30681;SDS011;17439;48.092;11.842;2022-11-20T09:24:26;2.13;;;1.23;;
30681;SDS011;17439;48.092;11.842;2022-11-20T09:26:53;2.40;;;1.08;;
30681;SDS011;17439;48.092;11.842;2022-11-20T09:29:20;1.70;;;1.20;;
30681;SDS011;17439;48.092;11.842;2022-11-20T09:31:48;2.53;;;1.30;;
30681;SDS011;17439;48.092;11.842;2022-11-20T09:34:15;1.90;;;1.08;;
30681;SDS011;17439;48.092;11.842;2022-11-20T09:36:42;2.05;;;1.63;;
30681;SDS011;17439;48.092;11.842;2022-11-20T09:39:10;3.90;;;1.08;;
30681;SDS011;17439;48.092;11.842;2022-11-20T09:49:48;2.42;;;1.13;;
30681;SDS011;17439;48.092;11.842;2022-11-20T09:52:49;4.60;;;1.50;;
30681;SDS011;17439;48.092;11.842;2022-11-20T09:55:21;1.75;;;1.00;;
30681;SDS011;17439;48.092;11.842;2022-11-20T09:57:49;1.77;;;1.30;;
30681;SDS011;17439;48.092;11.842;2022-11-20T10:00:18;1.42;;;1.08;;
30681;SDS011;17439;48.092;11.842;2022-11-20T10:02:52;2.40;;;1.45;;
30681;SDS011;17439;48.092;11.842;2022-11-20T10:05:36;1.48;;;0.80;;
30681;SDS011;17439;48.092;11.842;2022-11-20T10:08:16;2.28;;;1.10;;
30681;SDS011;17439;48.092;11.842;2022-11-20T10:11:04;1.60;;;0.80;;
30681;SDS011;17439;48.092;11.842;2022-11-20T10:13:56;1.92;;;0.95;;
30681;SDS011;17439;48.092;11.842;2022-11-20T10:25:20;2.67;;;0.70;;
30681;SDS011;17439;48.092;11.842;2022-11-20T10:30:45;1.38;;;0.75;;
30681;SDS011;17439;48.092;11.842;2022-11-20T10:33:24;2.03;;;0.73;;
30681;SDS011;17439;48.092;11.842;2022-11-20T10:36:14;3.67;;;0.73;;
30681;SDS011;17439;48.092;11.842;2022-11-20T10:38:54;1.63;;;0.68;;
30681;SDS011;17439;48.092;11.842;2022-11-20T10:41:30;2.42;;;0.77;;
30681;SDS011;17439;48.092;11.842;2022-11-20T10:46:34;1.38;;;0.80;;
30681;SDS011;17439;48.092;11.842;2022-11-20T10:49:13;1.52;;;0.80;;
30681;SDS011;17439;48.092;11.842;2022-11-20T10:51:49;1.27;;;0.80;;
30681;SDS011;17439;48.092;11.842;2022-11-20T10:54:32;2.60;;;1.00;;
30681;SDS011;17439;48.092;11.842;2022-11-20T10:57:03;1.33;;;0.73;;
30681;SDS011;17439;48.092;11.842;2022-11-20T11:02:39;2.28;;;0.90;;
30681;SDS011;17439;48.092;11.842;2022-11-20T11:05:14;0.93;;;0.57;;
30681;SDS011;17439;48.092;11.842;2022-11-20T11:07:55;1.55;;;0.60;;
30681;SDS011;17439;48.092;11.842;2022-11-20T11:10:27;0.90;;;0.60;;
30681;SDS011;17439;48.092;11.842;2022-11-20T11:13:03;0.63;;;0.60;;
30681;SDS011;17439;48.092;11.842;2022-11-20T11:15:37;1.02;;;0.80;;
30681;SDS011;17439;48.092;11.842;2022-11-20T11:18:10;0.80;;;0.50;;
30681;SDS011;17439;48.092;11.842;2022-11-20T11:20:38;0.55;;;0.40;;
30681;SDS011;17439;48.092;11.842;2022-11-20T11:23:05;0.75;;;0.50;;
30681;SDS011;17439;48.092;11.842;2022-11-20T11:25:55;2.60;;;0.60;;
30681;SDS011;17439;48.092;11.842;2022-11-20T11:28:25;2.88;;;1.45;;
30681;SDS011;17439;48.092;11.842;2022-11-20T11:30:52;1.33;;;0.90;;
30681;SDS011;17439;48.092;11.842;2022-11-20T11:35:50;0.60;;;0.40;;
30681;SDS011;17439;48.092;11.842;2022-11-20T11:38:38;2.00;;;0.90;;
30681;SDS011;17439;48.092;11.842;2022-11-20T11:41:09;1.02;;;0.68;;
30681;SDS011;17439;48.092;11.842;2022-11-20T11:43:49;1.27;;;0.50;;
30681;SDS011;17439;48.092;11.842;2022-11-20T11:48:56;1.15;;;0.90;;
30681;SDS011;17439;48.092;11.842;2022-11-20T11:51:34;1.25;;;0.63;;
30681;SDS011;17439;48.092;11.842;2022-11-20T11:54:13;2.78;;;1.00;;
30681;SDS011;17439;48.092;11.842;2022-11-20T11:56:46;1.08;;;0.60;;
30681;SDS011;17439;48.092;11.842;2022-11-20T11:59:15;0.70;;;0.70;;
30681;SDS011;17439;48.092;11.842;2022-11-20T12:01:55;1.70;;;0.80;;
30681;SDS011;17439;48.092;11.842;2022-11-20T12:04:42;1.40;;;0.65;;
30681;SDS011;17439;48.092;11.842;2022-11-20T12:07:15;2.50;;;0.85;;
30681;SDS011;17439;48.092;11.842;2022-11-20T12:10:13;0.98;;;0.70;;
30681;SDS011;17439;48.092;11.842;2022-11-20T12:12:44;0.75;;;0.50;;
30681;SDS011;17439;48.092;11.842;2022-11-20T12:15:25;1.23;;;0.93;;
30681;SDS011;17439;48.092;11.842;2022-11-20T12:17:56;0.75;;;0.60;;
30681;SDS011;17439;48.092;11.842;2022-11-20T12:20:24;3.23;;;0.63;;
30681;SDS011;17439;48.092;11.842;2022-11-20T12:23:05;1.80;;;0.77;;
30681;SDS011;17439;48.092;11.842;2022-11-20T12:25:42;1.50;;;1.02;;
30681;SDS011;17439;48.092;11.842;2022-11-20T12:31:46;1.40;;;0.57;;
30681;SDS011;17439;48.092;11.842;2022-11-20T12:34:27;2.47;;;1.52;;
30681;SDS011;17439;48.092;11.842;2022-11-20T12:39:41;1.55;;;1.00;;
30681;SDS011;17439;48.092;11.842;2022-11-20T12:42:13;2.88;;;0.75;;
30681;SDS011;17439;48.092;11.842;2022-11-20T12:50:32;1.17;;;0.70;;
30681;SDS011;17439;48.092;11.842;2022-11-20T12:56:21;1.55;;;0.90;;
30681;SDS011;17439;48.092;11.842;2022-11-20T12:59:18;1.85;;;0.80;;
30681;SDS011;17439;48.092;11.842;2022-11-20T13:02:25;0.90;;;0.75;;
30681;SDS011;17439;48.092;11.842;2022-11-20T13:05:04;1.80;;;0.93;;
30681;SDS011;17439;48.092;11.842;2022-11-20T13:07:36;2.17;;;1.02;;
30681;SDS011;17439;48.092;11.842;2022-11-20T13:10:03;1.53;;;0.87;;
30681;SDS011;17439;48.092;11.842;2022-11-20T13:12:41;1.80;;;0.82;;
30681;SDS011;17439;48.092;11.842;2022-11-20T13:18:04;0.95;;;0.70;;
30681;SDS011;17439;48.092;11.842;2022-11-20T13:20:35;1.48;;;0.90;;
30681;SDS011;17439;48.092;11.842;2022-11-20T13:23:03;0.90;;;0.77;;
30681;SDS011;17439;48.092;11.842;2022-11-20T13:25:36;1.33;;;0.80;;
30681;SDS011;17439;48.092;11.842;2022-11-20T13:28:27;2.17;;;1.05;;
30681;SDS011;17439;48.092;11.842;2022-11-20T13:30:57;2.78;;;1.00;;
30681;SDS011;17439;48.092;11.842;2022-11-20T13:33:32;1.67;;;1.08;;
30681;SDS011;17439;48.092;11.842;2022-11-20T13:36:05;2.15;;;0.70;;
30681;SDS011;17439;48.092;11.842;2022-11-20T13:38:50;1.30;;;1.20;;
30681;SDS011;17439;48.092;11.842;2022-11-20T13:46:39;0.65;;;0.57;;
30681;SDS011;17439;48.092;11.842;2022-11-20T13:49:09;1.17;;;0.80;;
30681;SDS011;17439;48.092;11.842;2022-11-20T13:51:46;2.75;;;1.25;;
30681;SDS011;17439;48.092;11.842;2022-11-20T13:57:35;3.13;;;1.10;;
30681;SDS011;17439;48.092;11.842;2022-11-20T14:02:39;1.15;;;0.77;;
30681;SDS011;17439;48.092;11.842;2022-11-20T14:05:11;2.10;;;1.05;;
30681;SDS011;17439;48.092;11.842;2022-11-20T14:07:48;2.67;;;1.17;;
30681;SDS011;17439;48.092;11.842;2022-11-20T14:10:27;3.38;;;2.10;;
30681;SDS011;17439;48.092;11.842;2022-11-20T14:12:58;1.13;;;0.65;;
30681;SDS011;17439;48.092;11.842;2022-11-20T14:18:11;4.35;;;1.50;;
30681;SDS011;17439;48.092;11.842;2022-11-20T14:20:41;1.52;;;0.80;;
30681;SDS011;17439;48.092;11.842;2022-11-20T14:23:09;4.60;;;1.77;;
30681;SDS011;17439;48.092;11.842;2022-11-20T14:25:41;1.83;;;1.20;;
30681;SDS011;17439;48.092;11.842;2022-11-20T14:28:10;2.47;;;1.00;;
30681;SDS011;17439;48.092;11.842;2022-11-20T14:30:47;1.25;;;1.00;;
30681;SDS011;17439;48.092;11.842;2022-11-20T14:33:15;2.03;;;1.10;;
30681;SDS011;17439;48.092;11.842;2022-11-20T14:35:47;1.67;;;1.30;;
30681;SDS011;17439;48.092;11.842;2022-11-20T14:38:17;2.75;;;1.40;;
30681;SDS011;17439;48.092;11.842;2022-11-20T14:40:48;1.90;;;1.10;;
30681;SDS011;17439;48.092;11.842;2022-11-20T14:43:17;2.63;;;1.00;;
30681;SDS011;17439;48.092;11.842;2022-11-20T14:46:14;1.70;;;0.90;;
30681;SDS011;17439;48.092;11.842;2022-11-20T14:48:56;1.73;;;0.70;;
30681;SDS011;17439;48.092;11.842;2022-11-20T14:51:28;2.30;;;1.07;;
30681;SDS011;17439;48.092;11.842;2022-11-20T14:54:07;1.38;;;0.80;;
30681;SDS011;17439;48.092;11.842;2022-11-20T14:56:56;2.00;;;1.00;;
30681;SDS011;17439;48.092;11.842;2022-11-20T14:59:28;2.05;;;0.70;;
30681;SDS011;17439;48.092;11.842;2022-11-20T15:02:00;1.98;;;1.05;;
30681;SDS011;17439;48.092;11.842;2022-11-20T15:04:32;1.65;;;0.90;;
30681;SDS011;17439;48.092;11.842;2022-11-20T15:07:00;2.15;;;1.10;;
30681;SDS011;17439;48.092;11.842;2022-11-20T15:09:27;4.15;;;2.40;;
30681;SDS011;17439;48.092;11.842;2022-11-20T15:11:55;1.33;;;0.97;;
30681;SDS011;17439;48.092;11.842;2022-11-20T15:14:25;1.83;;;0.88;;
30681;SDS011;17439;48.092;11.842;2022-11-20T15:16:54;2.20;;;0.80;;
30681;SDS011;17439;48.092;11.842;2022-11-20T15:19:22;1.63;;;0.93;;
30681;SDS011;17439;48.092;11.842;2022-11-20T15:21:50;1.90;;;1.00;;
30681;SDS011;17439;48.092;11.842;2022-11-20T15:24:18;1.77;;;0.80;;
30681;SDS011;17439;48.092;11.842;2022-11-20T15:26:45;1.55;;;0.80;;
30681;SDS011;17439;48.092;11.842;2022-11-20T15:29:13;0.93;;;0.60;;
30681;SDS011;17439;48.092;11.842;2022-11-20T15:31:42;0.85;;;0.50;;
30681;SDS011;17439;48.092;11.842;2022-11-20T15:34:12;2.17;;;0.60;;
30681;SDS011;17439;48.092;11.842;2022-11-20T15:36:41;1.25;;;0.55;;
30681;SDS011;17439;48.092;11.842;2022-11-20T15:39:09;0.70;;;0.50;;
30681;SDS011;17439;48.092;11.842;2022-11-20T15:41:36;2.05;;;0.73;;
30681;SDS011;17439;48.092;11.842;2022-11-20T15:44:04;2.35;;;0.70;;
30681;SDS011;17439;48.092;11.842;2022-11-20T15:46:32;3.13;;;0.65;;
30681;SDS011;17439;48.092;11.842;2022-11-20T15:49:02;1.08;;;0.60;;
30681;SDS011;17439;48.092;11.842;2022-11-20T15:51:30;0.45;;;0.40;;
30681;SDS011;17439;48.092;11.842;2022-11-20T15:54:00;1.33;;;0.75;;
30681;SDS011;17439;48.092;11.842;2022-11-20T15:56:35;1.40;;;0.38;;
30681;SDS011;17439;48.092;11.842;2022-11-20T15:59:02;0.95;;;0.50;;
30681;SDS011;17439;48.092;11.842;2022-11-20T16:01:30;4.22;;;0.50;;
30681;SDS011;17439;48.092;11.842;2022-11-20T16:03:57;1.47;;;0.60;;
30681;SDS011;17439;48.092;11.842;2022-11-20T16:06:24;0.38;;;0.32;;
30681;SDS011;17439;48.092;11.842;2022-11-20T16:08:51;1.30;;;0.45;;
30681;SDS011;17439;48.092;11.842;2022-11-20T16:11:18;0.63;;;0.43;;
30681;SDS011;17439;48.092;11.842;2022-11-20T16:13:45;3.00;;;0.50;;
30681;SDS011;17439;48.092;11.842;2022-11-20T16:16:22;1.63;;;0.68;;